Reno, NV

5:50 AM PST on February 22, 2017 (GMT -0800)
UNR Campus, LMR Roof | | Change Station
Active Advisory: Winter Weather Advisory

Elev 4570 ft 39.54 °N, 119.81 °W | Updated 13 seconds ago

Mostly Cloudy
Mostly Cloudy
29.3 °F
Feels Like 29 °F
N
0.0
Wind Variable Wind from NW
Gusts 0.0 mph

Today
High -- | Low -- °F
--% Chance of Precip.
Yesterday
High -- | Low -- °F
Precip. -- in
Pressure 30.10 in
Visibility 10.0 miles
Clouds Mostly Cloudy 5500 ft
Mostly Cloudy 11000 ft
Windchill 29 °F
Dew Point 25 °F
Humidity 84%
Rainfall 0.00 in
Snow Depth Not available.
6:41 AM 5:44 PM
Waning Crescent, 17% visible
METAR KRNO 221255Z 01005KT 10SM BKN055 BKN110 M01/M05 A3007 RMK AO2 SLP191 T10061050 $
Pressure 30.10 in
Visibility 10.0 miles
Clouds Mostly Cloudy 5500 ft
Mostly Cloudy 11000 ft
Windchill 29 °F
Dew Point 25 °F
Humidity 84%
Rainfall 0.00 in
Snow Depth Not available.
6:41 AM 5:44 PM
Waning Crescent, 17% visible
METAR KRNO 221255Z 01005KT 10SM BKN055 BKN110 M01/M05 A3007 RMK AO2 SLP191 T10061050 $

Get Your Daily Forecast Email!

Thanks for signing up!

Be on the lookout for a verification email in your inbox.

You'll start receiving the daily forecast at 8 AM.

×

10-Day Weather Forecast

Almanac

Astronomy

Feb. 22, 2017 Rise Set
Actual Time
Civil Twilight
Nautical Twilight
Astronomical Twilight
Moon
Length of Visible Light
Length of Day
Tomorrow will be .
, % of the Moon is Illuminated

Today's Extremes

State Highs State Lows

Community

WunderPhotos

Upload Photos

1,962,540 photos uploaded!

WunderBlog® & News

Nearby

Air Quality

  Air Quality AQ Index Pollutant
Not available.

Snow Depth

Station Depth Elevation

Earthquake Activity

City Distance Mag. Time & Date
Minimum magnitude displayed is 2.5.

Coastal Water Temperatures

Place Temperature

Stations

Nearby Weather Stations

Station Location Temp. Windchill Dew Point Humidity Wind Precip. Elev Updated Type
                   

Watches & Warnings

Winter Weather Advisory
Issued: 3:47 AM PST Feb. 22, 2017 – National Weather Service

... Winter Weather Advisory now in effect until 10 am PST this
morning...

The Winter Weather Advisory is now in effect until 10 am PST this
morning.

* Timing: bands of snow will gradually diminish through this
morning. Snow may rapidly vary in intensity over short
distances.

* Additional snow accumulations: up to 1 inch.

* Winds: west winds 10 to 20 mph with gusts up to 35 mph. These
winds will likely produce areas of blowing snow.

* Impacts: wet roads in lower valleys may ice up early this
morning, with snow covered roads above the valley floors. Bands
of snow and blowing snow could produce rapid drops in
visibility, creating hazardous travel conditions.

Precautionary/preparedness actions...

Travel delays are likely across far western Nevada, especially
north of Highway 50 and above 5000 feet. Roads are expected to
remain slick through the morning commute. Leave extra space
between vehicles since it takes longer to stop on slick roadways.